createdAt,value
2023-01-11T00:01:32.264Z,4.30
2023-01-11T00:04:00.159Z,4.30
2023-01-11T00:06:28.060Z,4.30
2023-01-11T00:08:56.332Z,4.30
2023-01-11T00:11:24.330Z,4.30
2023-01-11T00:13:53.441Z,4.30
2023-01-11T00:16:21.290Z,4.30
2023-01-11T00:18:49.119Z,4.30
2023-01-11T00:21:16.896Z,4.20
2023-01-11T00:23:44.732Z,4.20
2023-01-11T00:26:14.025Z,4.30
2023-01-11T00:28:41.806Z,4.30
2023-01-11T00:31:11.022Z,4.20
2023-01-11T00:33:38.848Z,4.20
2023-01-11T00:36:07.280Z,4.30
2023-01-11T00:38:53.806Z,4.30
2023-01-11T00:41:41.351Z,4.30
2023-01-11T00:44:28.134Z,4.30
2023-01-11T00:47:15.187Z,4.30
2023-01-11T00:49:43.345Z,4.30
2023-01-11T00:52:11.751Z,4.30
2023-01-11T00:54:40.939Z,4.40
2023-01-11T00:57:09.564Z,4.40
2023-01-11T00:59:39.187Z,4.40
2023-01-11T01:02:09.567Z,4.30
2023-01-11T01:04:37.581Z,4.40
2023-01-11T01:07:06.307Z,4.60
2023-01-11T01:09:34.515Z,4.40
2023-01-11T01:12:02.819Z,4.40
2023-01-11T01:14:29.954Z,4.40
2023-01-11T01:16:59.470Z,4.40
2023-01-11T01:19:29.552Z,4.30
2023-01-11T01:21:58.538Z,4.30
2023-01-11T01:24:28.658Z,4.30
2023-01-11T01:26:57.049Z,4.20
2023-01-11T01:29:25.351Z,4.20
2023-01-11T01:31:53.219Z,4.20
2023-01-11T01:34:21.105Z,4.20
2023-01-11T01:36:50.208Z,4.20
2023-01-11T01:39:17.980Z,4.20
2023-01-11T01:41:45.790Z,4.10
2023-01-11T01:44:54.926Z,4.20
2023-01-11T01:47:27.446Z,4.10
2023-01-11T01:49:55.793Z,4.10
2023-01-11T01:52:28.929Z,4.10
2023-01-11T01:55:00.396Z,4.10
2023-01-11T01:57:32.511Z,4.10
2023-01-11T02:00:05.481Z,4.10
2023-01-11T02:02:34.757Z,4.00
2023-01-11T02:05:02.727Z,4.00
2023-01-11T02:07:34.509Z,4.00
2023-01-11T02:10:06.447Z,3.90
2023-01-11T02:12:39.138Z,3.90
2023-01-11T02:15:08.822Z,3.90
2023-01-11T02:17:36.625Z,3.90
2023-01-11T02:20:14.818Z,3.90
2023-01-11T02:23:13.254Z,4.00
2023-01-11T02:26:03.211Z,4.00
2023-01-11T02:28:36.271Z,4.00
2023-01-11T02:31:13.482Z,4.00
2023-01-11T02:33:47.682Z,4.00
2023-01-11T02:36:24.046Z,4.00
2023-01-11T02:38:58.687Z,4.00
2023-01-11T02:41:53.342Z,4.10
2023-01-11T02:44:46.227Z,4.00
2023-01-11T02:47:19.595Z,4.00
2023-01-11T02:50:11.489Z,4.00
2023-01-11T02:52:47.370Z,4.10
2023-01-11T02:55:22.155Z,4.20
2023-01-11T02:57:52.611Z,4.20
2023-01-11T03:00:23.556Z,4.20
2023-01-11T03:03:07.722Z,4.20
2023-01-11T03:05:40.891Z,4.20
2023-01-11T03:08:26.397Z,4.20
2023-01-11T03:11:05.870Z,4.20
2023-01-11T03:13:53.535Z,4.20
2023-01-11T03:16:28.086Z,4.20
2023-01-11T03:19:09.826Z,4.20
2023-01-11T03:21:49.189Z,4.20
2023-01-11T03:24:27.775Z,4.30
2023-01-11T03:27:16.710Z,4.30
2023-01-11T03:29:50.749Z,4.30
2023-01-11T03:32:25.659Z,4.30
2023-01-11T03:35:03.021Z,4.40
2023-01-11T03:37:37.997Z,4.30
2023-01-11T03:40:11.503Z,4.30
2023-01-11T03:42:58.632Z,4.50
2023-01-11T03:45:28.528Z,4.40
2023-01-11T03:48:00.649Z,4.40
2023-01-11T03:50:30.585Z,4.40
2023-01-11T03:53:01.747Z,4.50
2023-01-11T03:55:35.005Z,4.40
2023-01-11T03:58:02.968Z,4.40
2023-01-11T04:00:32.557Z,4.50
2023-01-11T04:03:02.577Z,4.40
2023-01-11T04:05:30.468Z,4.50
2023-01-11T04:07:58.487Z,4.50
2023-01-11T04:10:26.368Z,4.50
2023-01-11T04:12:54.266Z,4.50
2023-01-11T04:15:22.163Z,4.50
2023-01-11T04:17:50.032Z,4.50
2023-01-11T04:20:19.454Z,4.50
2023-01-11T04:22:47.446Z,4.50
2023-01-11T04:25:15.517Z,4.50
2023-01-11T04:27:43.413Z,4.60
2023-01-11T04:30:12.495Z,4.50
2023-01-11T04:32:40.411Z,4.50
2023-01-11T04:35:09.193Z,4.60
2023-01-11T04:37:38.423Z,4.60
2023-01-11T04:40:07.526Z,4.60
2023-01-11T04:42:34.446Z,4.60
2023-01-11T04:45:05.316Z,4.70
2023-01-11T04:47:33.449Z,4.60
2023-01-11T04:50:01.433Z,4.70
2023-01-11T04:52:29.375Z,4.60
2023-01-11T04:54:58.645Z,4.70
2023-01-11T04:57:26.907Z,4.60
2023-01-11T04:59:54.783Z,4.70
2023-01-11T05:02:22.667Z,4.80
2023-01-11T05:04:50.548Z,4.80
2023-01-11T05:07:18.408Z,4.80
2023-01-11T05:09:46.292Z,4.80
2023-01-11T05:12:15.595Z,4.90
2023-01-11T05:14:43.469Z,4.90
2023-01-11T05:17:14.945Z,4.80
2023-01-11T05:19:43.071Z,4.90
2023-01-11T05:22:11.197Z,4.80
2023-01-11T05:24:39.113Z,4.90
2023-01-11T05:27:06.981Z,4.90
2023-01-11T05:29:36.282Z,4.90
2023-01-11T05:32:04.260Z,4.90
2023-01-11T05:34:32.172Z,4.90
2023-01-11T05:37:00.017Z,5.00
2023-01-11T05:39:28.087Z,5.00
2023-01-11T05:41:56.007Z,5.00
2023-01-11T05:44:41.107Z,5.00
2023-01-11T05:47:10.355Z,5.00
2023-01-11T05:49:38.266Z,5.10
2023-01-11T05:52:06.291Z,5.10
2023-01-11T05:54:34.217Z,5.10
2023-01-11T05:57:02.072Z,5.00
2023-01-11T05:59:32.131Z,5.10
2023-01-11T06:02:00.195Z,5.10
2023-01-11T06:04:29.663Z,5.10
2023-01-11T06:06:57.556Z,5.10
2023-01-11T06:09:25.847Z,5.10
2023-01-11T06:11:53.781Z,5.00
2023-01-11T06:14:21.682Z,5.00
2023-01-11T06:16:49.527Z,5.10
2023-01-11T06:19:17.590Z,5.10
2023-01-11T06:21:46.911Z,5.10
2023-01-11T06:24:14.834Z,5.10
2023-01-11T06:26:42.729Z,5.20
2023-01-11T06:29:11.483Z,5.20
2023-01-11T06:31:39.419Z,5.20
2023-01-11T06:34:07.288Z,5.20
2023-01-11T06:36:35.163Z,5.20
2023-01-11T06:39:04.678Z,5.30
2023-01-11T06:41:32.770Z,5.30
2023-01-11T06:44:00.647Z,5.40
2023-01-11T06:46:29.277Z,5.40
2023-01-11T06:48:57.291Z,5.40
2023-01-11T06:51:25.162Z,5.40
2023-01-11T06:53:53.022Z,5.50
2023-01-11T06:56:23.470Z,5.50
2023-01-11T06:58:52.500Z,5.60
2023-01-11T07:01:20.515Z,5.60
2023-01-11T07:03:48.633Z,5.60
2023-01-11T07:06:16.509Z,5.60
2023-01-11T07:08:44.411Z,5.70
2023-01-11T07:11:12.609Z,5.60
2023-01-11T07:13:41.947Z,5.60
2023-01-11T07:16:09.945Z,5.50
2023-01-11T07:18:37.825Z,5.50
2023-01-11T07:21:05.907Z,5.50
2023-01-11T07:23:33.844Z,5.50
2023-01-11T07:26:01.797Z,5.50
2023-01-11T07:28:30.682Z,5.60
2023-01-11T07:31:00.275Z,5.60
2023-01-11T07:33:28.713Z,5.60
2023-01-11T07:35:58.110Z,5.60
2023-01-11T07:38:25.998Z,5.60
2023-01-11T07:40:53.868Z,5.70
2023-01-11T07:43:23.162Z,5.70
2023-01-11T07:45:53.413Z,5.70
2023-01-11T07:48:26.597Z,5.80
2023-01-11T07:50:55.302Z,5.80
2023-01-11T07:53:25.419Z,5.80
2023-01-11T07:55:53.557Z,5.90
2023-01-11T07:58:21.419Z,5.90
2023-01-11T08:00:49.358Z,6.00
2023-01-11T08:03:17.580Z,6.10
2023-01-11T08:05:51.179Z,6.10
2023-01-11T08:08:19.116Z,6.10
2023-01-11T08:10:47.016Z,6.10
2023-01-11T08:13:33.047Z,6.20
2023-01-11T08:16:01.045Z,6.20
2023-01-11T08:18:28.992Z,6.20
2023-01-11T08:20:58.268Z,6.30
2023-01-11T08:23:27.066Z,6.30
2023-01-11T08:25:57.729Z,6.20
2023-01-11T08:28:26.199Z,6.30
2023-01-11T08:30:54.168Z,6.30
2023-01-11T08:33:22.123Z,6.40
2023-01-11T08:35:50.047Z,6.40
2023-01-11T08:38:19.294Z,6.40
2023-01-11T08:40:47.168Z,6.40
2023-01-11T08:43:15.073Z,6.50
2023-01-11T08:45:42.988Z,6.50
2023-01-11T08:48:12.087Z,6.60
2023-01-11T08:50:40.036Z,6.60
2023-01-11T08:53:07.918Z,6.60
2023-01-11T08:55:37.237Z,6.70
2023-01-11T08:58:05.100Z,6.70
2023-01-11T09:00:33.010Z,6.70
2023-01-11T09:03:03.523Z,6.80
2023-01-11T09:05:31.478Z,6.70
2023-01-11T09:07:59.363Z,6.80
2023-01-11T09:10:27.725Z,6.70
2023-01-11T09:12:57.219Z,6.80
2023-01-11T09:15:26.298Z,6.80
2023-01-11T09:17:54.509Z,6.80
2023-01-11T09:20:22.963Z,6.90
2023-01-11T09:22:53.135Z,6.80
2023-01-11T09:25:21.446Z,6.90
2023-01-11T09:27:51.103Z,6.80
2023-01-11T09:30:22.828Z,6.90
2023-01-11T09:32:52.229Z,6.80
2023-01-11T09:35:21.834Z,6.90
2023-01-11T09:37:50.308Z,6.90
2023-01-11T09:40:21.985Z,7.00
2023-01-11T09:42:52.665Z,7.00
2023-01-11T09:45:24.334Z,7.10
2023-01-11T09:48:00.896Z,7.10
2023-01-11T09:50:32.572Z,7.10
2023-01-11T09:53:04.570Z,7.20
2023-01-11T09:55:36.709Z,7.20
2023-01-11T09:58:22.914Z,7.20
2023-01-11T10:01:01.490Z,7.20
2023-01-11T10:04:15.888Z,7.30
2023-01-11T10:06:57.300Z,7.30
2023-01-11T10:18:28.172Z,7.50
2023-01-11T10:18:49.753Z,7.50
2023-01-11T10:21:23.305Z,7.50
2023-01-11T10:23:57.067Z,7.60
2023-01-11T10:26:29.015Z,7.50
2023-01-11T10:29:21.209Z,7.60
2023-01-11T10:32:09.639Z,7.70
2023-01-11T10:35:00.590Z,7.80
2023-01-11T10:37:49.909Z,7.80
2023-01-11T10:40:35.140Z,7.90
2023-01-11T10:47:22.891Z,7.90
2023-01-11T10:49:57.598Z,7.90
2023-01-11T10:52:41.234Z,7.90
2023-01-11T10:55:13.976Z,7.90
2023-01-11T10:57:59.738Z,7.90
2023-01-11T11:00:41.741Z,7.90
2023-01-11T11:03:34.137Z,7.90
2023-01-11T11:06:09.592Z,7.90
2023-01-11T11:08:43.082Z,8.00
2023-01-11T11:11:14.677Z,8.00
2023-01-11T11:13:53.406Z,8.00
2023-01-11T11:16:35.764Z,8.00
2023-01-11T11:19:03.924Z,8.00
2023-01-11T11:21:38.156Z,8.10
2023-01-11T11:24:14.259Z,8.00
2023-01-11T11:26:47.719Z,8.10
2023-01-11T11:29:22.382Z,8.10
2023-01-11T11:31:51.836Z,8.10
2023-01-11T11:34:22.825Z,8.10
2023-01-11T11:36:53.418Z,8.10
2023-01-11T11:39:23.676Z,8.10
2023-01-11T11:41:53.166Z,8.10
2023-01-11T11:44:24.307Z,8.10
2023-01-11T11:46:59.790Z,8.10
2023-01-11T11:49:28.659Z,8.10
2023-01-11T11:51:59.642Z,8.00
2023-01-11T11:54:31.033Z,8.00
2023-01-11T11:57:01.709Z,8.00
2023-01-11T11:59:33.000Z,7.90
2023-01-11T12:02:06.029Z,7.90
2023-01-11T12:04:44.945Z,7.90
2023-01-11T12:07:17.738Z,7.90
2023-01-11T12:09:49.384Z,7.90
2023-01-11T12:12:24.402Z,7.90
2023-01-11T12:15:20.464Z,7.90
2023-01-11T12:17:48.921Z,7.90
2023-01-11T12:20:33.664Z,8.00
2023-01-11T12:23:16.763Z,8.00
2023-01-11T12:26:01.266Z,8.00
2023-01-11T12:28:42.191Z,8.00
2023-01-11T12:31:18.244Z,8.00
2023-01-11T12:33:54.456Z,8.10
2023-01-11T12:36:29.312Z,8.00
2023-01-11T12:39:07.793Z,8.00
2023-01-11T12:42:05.706Z,8.10
2023-01-11T12:44:53.511Z,8.10
2023-01-11T12:47:56.258Z,8.10
2023-01-11T12:50:26.605Z,8.10
2023-01-11T12:53:13.447Z,8.20
2023-01-11T12:55:58.091Z,8.10
2023-01-11T12:58:35.227Z,8.20
2023-01-11T13:01:34.294Z,8.10
2023-01-11T13:04:27.229Z,8.10
2023-01-11T13:07:07.552Z,8.10
2023-01-11T13:09:49.354Z,8.00
2023-01-11T13:12:26.501Z,8.00
2023-01-11T13:15:04.582Z,8.00
2023-01-11T13:17:41.778Z,8.00
2023-01-11T13:20:28.769Z,7.90
2023-01-11T13:23:03.524Z,8.00
2023-01-11T13:25:33.931Z,7.90
2023-01-11T13:28:13.604Z,7.90
2023-01-11T13:30:47.321Z,7.80
2023-01-11T13:33:20.341Z,7.80
2023-01-11T13:35:51.764Z,7.80
2023-01-11T13:38:33.933Z,7.80
2023-01-11T13:41:13.136Z,7.80
2023-01-11T13:43:46.858Z,7.80
2023-01-11T13:46:21.927Z,7.90
2023-01-11T13:48:56.573Z,7.80
2023-01-11T13:51:31.907Z,7.80
2023-01-11T13:54:06.142Z,7.80
2023-01-11T13:56:39.303Z,7.90
2023-01-11T13:59:13.850Z,7.90
2023-01-11T14:01:49.321Z,7.80
2023-01-11T14:04:22.738Z,7.80
2023-01-11T14:07:06.061Z,7.80
2023-01-11T14:10:00.092Z,7.80
2023-01-11T14:12:41.350Z,7.80
2023-01-11T14:15:22.402Z,7.80
2023-01-11T14:18:14.161Z,7.80
2023-01-11T14:20:48.099Z,7.80
2023-01-11T14:23:18.986Z,7.80
2023-01-11T14:26:08.937Z,7.80
2023-01-11T14:28:52.357Z,7.80
2023-01-11T14:31:39.607Z,7.80
2023-01-11T14:34:50.171Z,7.80
2023-01-11T14:37:39.396Z,7.80
2023-01-11T14:40:27.698Z,7.80
2023-01-11T14:43:28.866Z,7.80
2023-01-11T14:46:23.915Z,7.90
2023-01-11T14:49:05.230Z,7.90
2023-01-11T14:51:41.029Z,7.90
2023-01-11T14:54:13.558Z,7.90
2023-01-11T14:56:54.469Z,7.90
2023-01-11T14:59:37.089Z,8.00
2023-01-11T15:02:25.765Z,8.00
2023-01-11T15:05:30.624Z,8.00
2023-01-11T15:08:16.917Z,8.00
2023-01-11T15:10:58.190Z,7.90
2023-01-11T15:13:28.835Z,7.90
2023-01-11T15:16:27.438Z,8.00
2023-01-11T15:18:55.891Z,7.90
2023-01-11T15:21:27.661Z,7.90
2023-01-11T15:23:58.164Z,8.00
2023-01-11T15:26:27.853Z,7.90
2023-01-11T15:28:57.438Z,8.00
2023-01-11T15:31:34.090Z,7.90
2023-01-11T15:34:05.965Z,7.90
2023-01-11T15:36:55.943Z,8.00
2023-01-11T15:39:34.160Z,8.00
2023-01-11T15:42:32.359Z,8.00
2023-01-11T15:45:59.946Z,8.00
2023-01-11T15:48:40.624Z,8.10
2023-01-11T15:51:34.583Z,8.10
2023-01-11T15:54:38.837Z,8.10
2023-01-11T15:57:32.188Z,8.10
2023-01-11T16:00:35.034Z,8.10
2023-01-11T16:03:34.258Z,8.10
2023-01-11T16:06:14.113Z,8.10
2023-01-11T16:08:51.256Z,8.10
2023-01-11T16:11:29.479Z,8.20
2023-01-11T16:14:19.670Z,8.10
2023-01-11T16:16:52.538Z,8.10
2023-01-11T16:19:22.540Z,8.10
2023-01-11T16:21:53.126Z,8.10
2023-01-11T16:24:23.115Z,8.10
2023-01-11T16:26:56.098Z,8.10
2023-01-11T16:29:26.388Z,8.10
2023-01-11T16:31:59.903Z,8.10
2023-01-11T16:34:28.892Z,8.10
2023-01-11T16:36:57.656Z,8.30
2023-01-11T16:39:28.892Z,8.10
2023-01-11T16:42:00.969Z,8.20
2023-01-11T16:44:39.722Z,8.20
2023-01-11T16:47:12.605Z,8.20
2023-01-11T16:49:42.103Z,8.20
2023-01-11T16:52:36.857Z,8.20
2023-01-11T16:55:20.713Z,8.20
2023-01-11T16:57:54.577Z,8.30
2023-01-11T17:00:32.445Z,8.30
2023-01-11T17:03:16.388Z,8.30
2023-01-11T17:05:54.210Z,8.30
2023-01-11T17:08:27.479Z,8.30
2023-01-11T17:10:57.810Z,8.30
2023-01-11T17:13:54.886Z,8.30
2023-01-11T17:16:25.953Z,8.30
2023-01-11T17:18:55.345Z,8.30
2023-01-11T17:21:26.619Z,8.30
2023-01-11T17:23:58.823Z,8.40
2023-01-11T17:26:28.809Z,8.30
2023-01-11T17:29:00.589Z,8.30
2023-01-11T17:31:31.837Z,8.40
2023-01-11T17:34:06.052Z,8.30
2023-01-11T17:36:34.571Z,8.40
2023-01-11T17:39:04.460Z,8.30
2023-01-11T17:41:50.953Z,8.30
2023-01-11T17:44:39.923Z,8.30
2023-01-11T17:47:11.221Z,8.20
2023-01-11T17:49:39.774Z,8.20
2023-01-11T17:52:21.113Z,8.10
2023-01-11T17:55:00.190Z,8.00
2023-01-11T17:57:28.146Z,8.10
2023-01-11T18:00:25.205Z,8.10
2023-01-11T18:02:54.054Z,8.00
2023-01-11T18:05:25.656Z,8.00
2023-01-11T18:07:56.047Z,8.00
2023-01-11T18:10:26.595Z,8.00
2023-01-11T18:12:56.561Z,8.00
2023-01-11T18:15:30.063Z,7.90
2023-01-11T18:17:58.369Z,8.00
2023-01-11T18:20:38.078Z,8.00
2023-01-11T18:23:19.079Z,8.00
2023-01-11T18:25:47.379Z,8.10
2023-01-11T18:28:27.586Z,8.10
2023-01-11T18:31:01.591Z,8.10
2023-01-11T18:33:32.226Z,8.10
2023-01-11T18:36:01.833Z,8.10
2023-01-11T18:38:32.051Z,8.20
2023-01-11T18:41:22.318Z,8.20
2023-01-11T18:43:50.265Z,8.10
2023-01-11T18:46:19.609Z,8.10
2023-01-11T18:48:47.643Z,8.20
2023-01-11T18:51:18.835Z,8.10
2023-01-11T18:53:46.749Z,8.20
2023-01-11T18:56:16.280Z,8.20
2023-01-11T18:58:44.386Z,8.20
2023-01-11T19:01:12.694Z,8.20
2023-01-11T19:03:43.762Z,8.20
2023-01-11T19:06:14.228Z,8.20
2023-01-11T19:08:42.265Z,8.20
2023-01-11T19:11:10.182Z,8.20
2023-01-11T19:13:38.126Z,8.20
2023-01-11T19:16:07.039Z,8.20
2023-01-11T19:18:36.073Z,8.20
2023-01-11T19:21:06.784Z,8.20
2023-01-11T19:23:35.120Z,8.10
2023-01-11T19:26:03.035Z,8.10
2023-01-11T19:28:31.103Z,8.10
2023-01-11T19:30:59.320Z,8.00
2023-01-11T19:33:27.258Z,8.10
2023-01-11T19:35:55.152Z,8.00
2023-01-11T19:38:24.402Z,8.00
2023-01-11T19:40:52.290Z,8.00
2023-01-11T19:43:20.181Z,7.90
2023-01-11T19:45:56.273Z,7.90
2023-01-11T19:48:24.387Z,7.90
2023-01-11T19:50:52.423Z,7.90
2023-01-11T19:53:20.335Z,7.80
2023-01-11T19:55:49.535Z,7.80
2023-01-11T19:58:17.447Z,7.80
2023-01-11T20:00:45.360Z,7.80
2023-01-11T20:03:13.241Z,7.70
2023-01-11T20:05:41.167Z,7.70
2023-01-11T20:08:09.094Z,7.70
2023-01-11T20:10:36.962Z,7.70
2023-01-11T20:13:06.170Z,7.60
2023-01-11T20:15:34.135Z,7.60
2023-01-11T20:18:02.278Z,7.60
2023-01-11T20:20:30.213Z,7.60
2023-01-11T20:22:58.092Z,7.60
2023-01-11T20:25:26.218Z,7.60
2023-01-11T20:27:54.169Z,7.60
2023-01-11T20:30:23.397Z,7.60
2023-01-11T20:32:51.275Z,7.50
2023-01-11T20:35:19.312Z,7.50
2023-01-11T20:37:47.245Z,7.50
2023-01-11T20:40:15.183Z,7.60
2023-01-11T20:42:43.284Z,7.50
2023-01-11T20:45:12.138Z,7.40
2023-01-11T20:47:41.555Z,7.40
2023-01-11T20:50:10.559Z,7.40
2023-01-11T20:52:38.448Z,7.40
2023-01-11T20:55:07.361Z,7.30
2023-01-11T20:57:35.269Z,7.30
2023-01-11T21:00:05.002Z,7.30
2023-01-11T21:02:32.938Z,7.30
2023-01-11T21:05:04.324Z,7.30
2023-01-11T21:07:32.489Z,7.30
2023-01-11T21:10:00.466Z,7.30
2023-01-11T21:12:28.391Z,7.30
2023-01-11T21:14:56.307Z,7.30
2023-01-11T21:17:24.269Z,7.20
2023-01-11T21:19:52.145Z,7.20
2023-01-11T21:22:21.450Z,7.20
2023-01-11T21:24:49.285Z,7.20
2023-01-11T21:27:17.239Z,7.20
2023-01-11T21:29:45.149Z,7.20
2023-01-11T21:32:13.005Z,7.20
2023-01-11T21:34:40.917Z,7.10
2023-01-11T21:37:08.830Z,7.20
2023-01-11T21:39:38.134Z,7.10
2023-01-11T21:42:06.190Z,7.20
2023-01-11T21:44:35.117Z,7.10
2023-01-11T21:47:04.476Z,7.20
2023-01-11T21:49:33.261Z,7.20
2023-01-11T21:52:01.388Z,7.10
2023-01-11T21:54:29.389Z,7.20
2023-01-11T21:56:58.811Z,7.20
2023-01-11T21:59:26.755Z,7.20
2023-01-11T22:01:54.649Z,7.20
2023-01-11T22:04:22.836Z,7.20
2023-01-11T22:06:55.996Z,7.20
2023-01-11T22:09:25.836Z,7.30
2023-01-11T22:11:53.923Z,7.30
2023-01-11T22:14:23.195Z,7.30
2023-01-11T22:16:51.418Z,7.30
2023-01-11T22:19:19.669Z,7.30
2023-01-11T22:21:47.552Z,7.30
2023-01-11T22:24:15.822Z,7.30
2023-01-11T22:26:43.735Z,7.30
2023-01-11T22:29:18.288Z,7.20
2023-01-11T22:31:50.827Z,7.30
2023-01-11T22:34:19.963Z,7.20
2023-01-11T22:36:48.046Z,7.20
2023-01-11T22:39:19.194Z,7.30
2023-01-11T22:41:47.930Z,7.10
2023-01-11T22:44:16.357Z,7.10
2023-01-11T22:46:44.454Z,7.10
2023-01-11T22:49:14.136Z,7.00
2023-01-11T22:51:42.929Z,7.00
2023-01-11T22:54:11.265Z,7.00
2023-01-11T22:56:39.216Z,7.00
2023-01-11T22:59:07.287Z,6.90
2023-01-11T23:01:36.474Z,6.90
2023-01-11T23:04:05.583Z,6.90
2023-01-11T23:06:36.801Z,6.90
2023-01-11T23:09:06.244Z,6.90
2023-01-11T23:11:55.801Z,6.90
2023-01-11T23:14:27.764Z,6.90
2023-01-11T23:16:55.813Z,6.80
2023-01-11T23:19:23.831Z,6.80
2023-01-11T23:21:53.107Z,6.80
2023-01-11T23:24:21.324Z,6.70
2023-01-11T23:26:49.242Z,6.70
2023-01-11T23:29:17.396Z,6.70
2023-01-11T23:31:45.309Z,6.70
2023-01-11T23:34:13.802Z,6.70
2023-01-11T23:36:43.433Z,6.70
2023-01-11T23:39:18.583Z,6.70
2023-01-11T23:42:04.316Z,6.70
2023-01-11T23:44:32.341Z,6.70
2023-01-11T23:47:17.877Z,6.70
2023-01-11T23:49:45.742Z,6.70
2023-01-11T23:52:13.710Z,6.80
2023-01-11T23:54:43.320Z,6.80
2023-01-11T23:57:12.310Z,6.70
2023-01-11T23:59:40.993Z,6.70
